createdAt,value
2023-06-17T00:00:42.428Z,66.60
2023-06-17T00:01:42.332Z,66.49
2023-06-17T00:02:42.382Z,66.33
2023-06-17T00:03:42.342Z,64.68
2023-06-17T00:04:42.332Z,66.25
2023-06-17T00:05:42.302Z,65.86
2023-06-17T00:06:42.275Z,66.06
2023-06-17T00:07:42.262Z,64.51
2023-06-17T00:08:42.212Z,64.45
2023-06-17T00:09:42.221Z,65.02
2023-06-17T00:10:42.227Z,63.52
2023-06-17T00:11:42.182Z,62.80
2023-06-17T00:12:42.198Z,63.42
2023-06-17T00:13:42.167Z,62.78
2023-06-17T00:14:42.157Z,62.21
2023-06-17T00:15:42.118Z,61.10
2023-06-17T00:16:42.174Z,61.13
2023-06-17T00:17:42.129Z,60.87
2023-06-17T00:18:42.090Z,60.73
2023-06-17T00:19:42.089Z,60.02
2023-06-17T00:20:42.090Z,58.93
2023-06-17T00:21:42.045Z,58.68
2023-06-17T00:22:42.052Z,58.67
2023-06-17T00:23:42.022Z,58.89
2023-06-17T00:24:42.011Z,59.17
2023-06-17T00:25:42.006Z,58.16
2023-06-17T00:26:41.996Z,53.24
2023-06-17T00:27:41.984Z,49.23
2023-06-17T00:28:41.942Z,47.38
2023-06-17T00:29:41.930Z,47.06
2023-06-17T00:30:41.925Z,45.57
2023-06-17T00:31:41.905Z,43.97
2023-06-17T00:32:42.273Z,44.81
2023-06-17T00:33:41.864Z,42.60
2023-06-17T00:34:41.841Z,39.43
2023-06-17T00:35:41.868Z,39.55
2023-06-17T00:36:41.832Z,38.53
2023-06-17T00:37:41.825Z,36.80
2023-06-17T00:38:41.807Z,37.30
2023-06-17T00:39:41.777Z,35.78
2023-06-17T00:40:41.777Z,35.79
2023-06-17T00:41:41.778Z,36.71
2023-06-17T00:42:41.767Z,37.72
2023-06-17T00:43:41.779Z,40.73
2023-06-17T00:44:41.754Z,42.86
2023-06-17T00:45:41.757Z,42.57
2023-06-17T00:46:41.787Z,43.32
2023-06-17T00:47:41.805Z,44.45
2023-06-17T00:48:41.714Z,44.89
2023-06-17T00:49:41.687Z,46.53
2023-06-17T00:50:41.684Z,47.98
2023-06-17T00:51:41.667Z,48.10
2023-06-17T00:52:42.894Z,47.50
2023-06-17T00:53:41.646Z,49.30
2023-06-17T00:54:41.637Z,49.54
2023-06-17T00:55:41.620Z,50.93
2023-06-17T00:56:41.598Z,51.43
2023-06-17T00:57:41.601Z,52.25
2023-06-17T00:58:41.595Z,53.20
2023-06-17T00:59:41.558Z,51.86
2023-06-17T01:00:41.592Z,51.03
2023-06-17T01:01:41.540Z,53.26
2023-06-17T01:02:41.812Z,53.10
2023-06-17T01:03:41.678Z,51.51
2023-06-17T01:04:41.648Z,51.27
2023-06-17T01:05:41.583Z,51.09
2023-06-17T01:06:41.601Z,52.61
2023-06-17T01:07:41.617Z,54.27
2023-06-17T01:08:41.575Z,52.06
2023-06-17T01:09:41.579Z,54.45
2023-06-17T01:10:41.567Z,51.89
2023-06-17T01:11:41.555Z,48.87
2023-06-17T01:12:41.544Z,50.06
2023-06-17T01:13:41.568Z,49.37
2023-06-17T01:14:41.541Z,49.10
2023-06-17T01:15:41.537Z,49.35
2023-06-17T01:16:41.570Z,50.27
2023-06-17T01:17:41.551Z,51.43
2023-06-17T01:18:41.487Z,50.54
2023-06-17T01:19:41.496Z,48.18
2023-06-17T01:20:41.480Z,48.10
2023-06-17T01:21:41.501Z,48.75
2023-06-17T01:22:41.453Z,50.27
2023-06-17T01:23:41.484Z,49.99
2023-06-17T01:24:41.468Z,50.20
2023-06-17T01:25:41.474Z,47.61
2023-06-17T01:26:41.471Z,48.20
2023-06-17T01:27:41.470Z,49.83
2023-06-17T01:28:41.453Z,50.51
2023-06-17T01:29:41.407Z,51.01
2023-06-17T01:30:41.465Z,50.98
2023-06-17T01:31:41.416Z,49.37
2023-06-17T01:32:41.489Z,49.25
2023-06-17T01:33:41.458Z,49.28
2023-06-17T01:34:41.436Z,50.25
2023-06-17T01:35:41.442Z,49.61
2023-06-17T01:36:41.442Z,47.31
2023-06-17T01:37:41.436Z,48.15
2023-06-17T01:38:41.419Z,50.37
2023-06-17T01:39:41.426Z,50.01
2023-06-17T01:40:41.429Z,51.78
2023-06-17T01:41:41.437Z,52.74
2023-06-17T01:42:41.420Z,53.87
2023-06-17T01:43:41.450Z,53.37
2023-06-17T01:44:41.391Z,51.97
2023-06-17T01:45:41.451Z,53.31
2023-06-17T01:46:41.413Z,53.40
2023-06-17T01:47:41.467Z,54.34
2023-06-17T01:48:41.441Z,54.51
2023-06-17T01:49:41.408Z,54.29
2023-06-17T01:50:41.403Z,53.54
2023-06-17T01:51:41.367Z,53.90
2023-06-17T01:52:41.395Z,53.99
2023-06-17T01:53:41.367Z,54.50
2023-06-17T01:54:41.355Z,54.11
2023-06-17T01:55:41.387Z,53.61
2023-06-17T01:56:41.441Z,49.21
2023-06-17T01:57:41.387Z,44.81
2023-06-17T01:58:41.371Z,42.87
2023-06-17T01:59:41.357Z,40.35
2023-06-17T02:00:41.337Z,38.51
2023-06-17T02:01:41.347Z,36.59
2023-06-17T02:02:41.504Z,36.67
2023-06-17T02:03:41.428Z,36.32
2023-06-17T02:04:41.380Z,35.80
2023-06-17T02:05:41.418Z,36.51
2023-06-17T02:06:41.400Z,35.37
2023-06-17T02:07:41.400Z,35.15
2023-06-17T02:08:41.414Z,34.43
2023-06-17T02:09:41.414Z,33.13
2023-06-17T02:10:41.438Z,32.41
2023-06-17T02:11:41.456Z,32.22
2023-06-17T02:12:41.493Z,32.61
2023-06-17T02:13:41.498Z,30.99
2023-06-17T02:14:41.512Z,30.27
2023-06-17T02:15:41.567Z,30.09
2023-06-17T02:16:41.661Z,29.41
2023-06-17T02:17:41.611Z,29.35
2023-06-17T02:18:41.603Z,29.85
2023-06-17T02:19:41.675Z,30.33
2023-06-17T02:20:41.728Z,29.78
2023-06-17T02:21:41.717Z,28.90
2023-06-17T02:22:41.712Z,28.11
2023-06-17T02:23:41.773Z,28.22
2023-06-17T02:24:41.759Z,28.10
2023-06-17T02:25:41.780Z,27.64
2023-06-17T02:26:41.801Z,28.44
2023-06-17T02:27:41.805Z,28.20
2023-06-17T02:28:41.824Z,27.90
2023-06-17T02:29:41.894Z,26.45
2023-06-17T02:30:41.913Z,26.66
2023-06-17T02:31:42.054Z,26.60
2023-06-17T02:32:41.996Z,25.40
2023-06-17T02:33:42.009Z,25.30
2023-06-17T02:34:42.021Z,24.34
2023-06-17T02:35:42.048Z,23.88
2023-06-17T02:36:42.045Z,24.23
2023-06-17T02:37:42.087Z,23.81
2023-06-17T02:38:42.095Z,25.11
2023-06-17T02:39:42.104Z,25.28
2023-06-17T02:40:42.144Z,25.38
2023-06-17T02:41:42.187Z,25.51
2023-06-17T02:42:42.196Z,25.80
2023-06-17T02:43:42.267Z,26.52
2023-06-17T02:44:42.211Z,27.43
2023-06-17T02:45:42.225Z,27.52
2023-06-17T02:46:42.266Z,28.63
2023-06-17T02:47:42.383Z,28.87
2023-06-17T02:48:42.248Z,29.55
2023-06-17T02:49:42.294Z,29.45
2023-06-17T02:50:42.283Z,28.34
2023-06-17T02:51:42.333Z,27.31
2023-06-17T02:52:42.323Z,26.43
2023-06-17T02:53:42.327Z,27.16
2023-06-17T02:54:42.322Z,26.36
2023-06-17T02:55:42.330Z,24.96
2023-06-17T02:56:42.377Z,25.12
2023-06-17T02:57:42.392Z,23.46
2023-06-17T02:58:42.416Z,22.01
2023-06-17T02:59:42.390Z,20.65
2023-06-17T03:00:42.471Z,19.55
2023-06-17T03:01:42.472Z,18.82
2023-06-17T03:02:42.545Z,18.14
2023-06-17T03:03:42.457Z,17.03
2023-06-17T03:04:42.474Z,15.29
2023-06-17T03:05:42.586Z,14.41
2023-06-17T03:06:42.571Z,13.20
2023-06-17T03:07:42.572Z,12.72
2023-06-17T03:08:42.649Z,11.63
2023-06-17T03:09:42.695Z,11.36
2023-06-17T03:10:42.712Z,11.08
2023-06-17T03:11:42.760Z,10.68
2023-06-17T03:12:42.784Z,10.72
2023-06-17T03:13:42.835Z,10.23
2023-06-17T03:14:42.895Z,9.79
2023-06-17T03:15:42.926Z,9.84
2023-06-17T03:16:42.968Z,10.28
2023-06-17T03:17:43.060Z,10.38
2023-06-17T03:18:43.089Z,10.63
2023-06-17T03:19:43.102Z,10.45
2023-06-17T03:20:43.155Z,10.21
2023-06-17T03:21:43.192Z,10.21
2023-06-17T03:22:43.267Z,10.68
2023-06-17T03:23:43.305Z,10.83
2023-06-17T03:24:43.361Z,11.03
2023-06-17T03:25:43.382Z,11.37
2023-06-17T03:26:43.435Z,11.93
2023-06-17T03:27:43.500Z,12.30
2023-06-17T03:28:43.546Z,12.43
2023-06-17T03:29:43.626Z,12.94
2023-06-17T03:30:43.684Z,13.40
2023-06-17T03:31:43.713Z,13.89
2023-06-17T03:32:43.834Z,14.13
2023-06-17T03:33:43.790Z,14.15
2023-06-17T03:34:43.844Z,13.99
2023-06-17T03:35:43.853Z,13.02
2023-06-17T03:36:43.887Z,12.48
2023-06-17T03:37:43.923Z,12.11
2023-06-17T03:38:43.947Z,11.61
2023-06-17T03:39:44.015Z,11.43
2023-06-17T03:40:44.042Z,11.31
2023-06-17T03:41:44.082Z,11.69
2023-06-17T03:42:44.171Z,11.63
2023-06-17T03:43:44.243Z,11.87
2023-06-17T03:44:44.235Z,11.88
2023-06-17T03:45:44.286Z,12.28
2023-06-17T03:46:44.372Z,11.95
2023-06-17T03:47:44.418Z,12.29
2023-06-17T03:48:44.459Z,12.15
2023-06-17T03:49:44.504Z,11.98
2023-06-17T03:50:44.538Z,12.14
2023-06-17T03:51:44.603Z,12.29
2023-06-17T03:52:44.628Z,12.45
2023-06-17T03:53:44.657Z,12.89
2023-06-17T03:54:44.701Z,13.06
2023-06-17T03:55:44.811Z,13.36
2023-06-17T03:56:44.801Z,13.41
2023-06-17T03:57:44.853Z,14.23
2023-06-17T03:58:44.878Z,14.32
2023-06-17T03:59:44.938Z,14.79
2023-06-17T04:00:45.018Z,14.54
2023-06-17T04:01:45.039Z,14.84
2023-06-17T04:02:45.113Z,14.94
2023-06-17T04:03:45.177Z,15.77
2023-06-17T04:04:45.211Z,16.74
2023-06-17T04:05:45.194Z,16.84
2023-06-17T04:06:45.228Z,17.66
2023-06-17T04:07:45.268Z,17.86
2023-06-17T04:08:45.300Z,18.54
2023-06-17T04:10:01.673Z,18.89
2023-06-17T04:10:46.326Z,18.93
2023-06-17T04:11:45.351Z,19.08
2023-06-17T04:12:45.322Z,19.31
2023-06-17T04:13:45.288Z,19.58
2023-06-17T04:14:45.292Z,20.73
2023-06-17T04:15:45.304Z,21.43
2023-06-17T04:16:45.326Z,21.47
2023-06-17T04:17:45.305Z,20.24
2023-06-17T04:18:45.283Z,19.86
2023-06-17T04:19:45.281Z,19.55
2023-06-17T04:20:45.282Z,19.57
2023-06-17T04:21:45.261Z,18.97
2023-06-17T04:22:45.256Z,18.71
2023-06-17T04:23:45.246Z,18.66
2023-06-17T04:24:45.253Z,19.58
2023-06-17T04:25:45.254Z,20.17
2023-06-17T04:26:45.284Z,20.12
2023-06-17T04:27:45.302Z,21.26
2023-06-17T04:28:45.370Z,21.50
2023-06-17T04:29:45.384Z,21.68
2023-06-17T04:30:45.400Z,22.08
2023-06-17T04:31:45.434Z,22.64
2023-06-17T04:32:45.513Z,22.35
2023-06-17T04:33:45.532Z,22.46
2023-06-17T04:34:45.545Z,23.19
2023-06-17T04:35:45.552Z,23.25
2023-06-17T04:36:45.622Z,23.52
2023-06-17T04:37:45.649Z,24.24
2023-06-17T04:38:45.685Z,24.14
2023-06-17T04:39:45.734Z,25.29
2023-06-17T04:40:45.704Z,25.37
2023-06-17T04:41:45.708Z,24.89
2023-06-17T04:42:45.749Z,25.40
2023-06-17T04:43:45.741Z,25.07
2023-06-17T04:44:45.752Z,25.64
2023-06-17T04:45:45.801Z,26.43
2023-06-17T04:46:45.846Z,26.48
2023-06-17T04:47:45.862Z,26.62
2023-06-17T04:48:45.804Z,26.15
2023-06-17T04:49:45.848Z,26.58
2023-06-17T04:50:45.863Z,26.47
2023-06-17T04:51:45.882Z,27.30
2023-06-17T04:52:45.919Z,27.26
2023-06-17T04:53:46.000Z,27.15
2023-06-17T04:54:45.947Z,26.60
2023-06-17T04:55:45.973Z,27.23
2023-06-17T04:56:46.027Z,26.77
2023-06-17T04:57:46.049Z,26.52
2023-06-17T04:58:46.026Z,26.61
2023-06-17T04:59:46.070Z,26.32
2023-06-17T05:00:46.193Z,23.22
2023-06-17T05:01:46.128Z,22.71
2023-06-17T05:02:46.155Z,22.89
2023-06-17T05:03:46.223Z,21.28
2023-06-17T05:04:46.153Z,20.59
2023-06-17T05:05:46.160Z,20.16
2023-06-17T05:06:46.225Z,19.12
2023-06-17T05:07:46.229Z,19.58
2023-06-17T05:08:46.238Z,19.77
2023-06-17T05:09:46.248Z,20.03
2023-06-17T05:10:46.266Z,19.71
2023-06-17T05:11:46.285Z,19.76
2023-06-17T05:12:46.283Z,18.35
2023-06-17T05:13:46.316Z,18.26
2023-06-17T05:14:46.366Z,18.12
2023-06-17T05:15:46.382Z,18.27
2023-06-17T05:16:46.426Z,17.96
2023-06-17T05:17:46.432Z,16.82
2023-06-17T05:18:46.456Z,15.50
2023-06-17T05:19:46.442Z,14.71
2023-06-17T05:20:46.485Z,14.97
2023-06-17T05:21:46.497Z,15.08
2023-06-17T05:22:46.525Z,14.81
2023-06-17T05:23:46.557Z,14.83
2023-06-17T05:24:46.660Z,14.68
2023-06-17T05:25:46.554Z,14.75
2023-06-17T05:26:46.555Z,14.87
2023-06-17T05:27:46.587Z,14.70
2023-06-17T05:28:46.589Z,13.83
2023-06-17T05:29:46.685Z,12.81
2023-06-17T05:30:46.692Z,12.35
2023-06-17T05:31:46.673Z,12.31
2023-06-17T05:32:46.720Z,12.35
2023-06-17T05:33:46.704Z,12.26
2023-06-17T05:34:46.709Z,11.64
2023-06-17T05:35:46.714Z,10.96
2023-06-17T05:36:46.771Z,10.35
2023-06-17T05:37:46.777Z,9.89
2023-06-17T05:38:46.790Z,9.56
2023-06-17T05:39:46.812Z,9.87
2023-06-17T05:40:46.860Z,10.25
2023-06-17T05:41:46.903Z,11.15
2023-06-17T05:42:46.913Z,11.36
2023-06-17T05:43:46.913Z,11.21
2023-06-17T05:44:46.957Z,10.95
2023-06-17T05:45:46.974Z,10.15
2023-06-17T05:46:46.988Z,9.83
2023-06-17T05:47:47.013Z,9.83
2023-06-17T05:48:47.029Z,9.75
2023-06-17T05:49:47.045Z,9.23
2023-06-17T05:50:47.081Z,9.50
2023-06-17T05:51:47.097Z,9.53
2023-06-17T05:52:47.175Z,9.09
2023-06-17T05:53:47.229Z,9.31
2023-06-17T05:54:47.151Z,8.97
2023-06-17T05:55:47.215Z,9.02
2023-06-17T05:56:47.241Z,8.96
2023-06-17T05:57:47.345Z,8.45
2023-06-17T05:58:47.268Z,8.34
2023-06-17T05:59:47.289Z,8.38
2023-06-17T06:00:47.317Z,8.14
2023-06-17T06:01:47.374Z,7.69
2023-06-17T06:02:47.416Z,6.92
2023-06-17T06:03:47.386Z,6.60
2023-06-17T06:04:47.328Z,6.80
2023-06-17T06:05:47.370Z,6.67
2023-06-17T06:06:47.349Z,6.31
2023-06-17T06:07:47.397Z,6.06
2023-06-17T06:08:47.354Z,5.81
2023-06-17T06:09:47.376Z,5.70
2023-06-17T06:10:47.395Z,5.70
2023-06-17T06:11:47.431Z,6.00
2023-06-17T06:12:47.444Z,5.80
2023-06-17T06:13:47.505Z,5.75
2023-06-17T06:14:47.495Z,5.50
2023-06-17T06:15:47.616Z,5.43
2023-06-17T06:16:47.725Z,5.42
2023-06-17T06:17:47.648Z,5.34
2023-06-17T06:18:47.673Z,5.41
2023-06-17T06:19:47.700Z,5.28
2023-06-17T06:20:47.756Z,4.98
2023-06-17T06:21:47.786Z,4.94
2023-06-17T06:22:47.793Z,5.14
2023-06-17T06:23:47.890Z,5.23
2023-06-17T06:24:47.960Z,5.26
2023-06-17T06:25:47.927Z,5.13
2023-06-17T06:26:47.997Z,5.20
2023-06-17T06:27:48.027Z,5.15
2023-06-17T06:28:48.074Z,4.97
2023-06-17T06:29:48.065Z,4.75
2023-06-17T06:30:48.090Z,4.75
2023-06-17T06:31:48.173Z,4.77
2023-06-17T06:32:48.200Z,4.70
2023-06-17T06:33:48.236Z,4.71
2023-06-17T06:34:48.259Z,4.63
2023-06-17T06:35:48.275Z,4.72
2023-06-17T06:36:48.378Z,4.73
2023-06-17T06:37:48.366Z,4.77
2023-06-17T06:38:48.414Z,4.82
2023-06-17T06:39:48.424Z,4.73
2023-06-17T06:40:48.461Z,4.59
2023-06-17T06:41:48.489Z,4.38
2023-06-17T06:42:48.507Z,4.07
2023-06-17T06:43:48.550Z,3.94
2023-06-17T06:44:48.606Z,3.79
2023-06-17T06:45:48.678Z,3.53
2023-06-17T06:46:48.699Z,3.43
2023-06-17T06:47:48.772Z,3.34
2023-06-17T06:48:48.755Z,3.24
2023-06-17T06:49:48.777Z,3.28
2023-06-17T06:50:48.860Z,3.29
2023-06-17T06:51:48.906Z,3.31
2023-06-17T06:52:48.939Z,3.20
2023-06-17T06:53:48.956Z,3.21
2023-06-17T06:54:48.968Z,3.25
2023-06-17T06:55:49.020Z,3.20
2023-06-17T06:56:49.287Z,3.51
2023-06-17T06:57:49.099Z,3.58
2023-06-17T06:58:49.123Z,3.47
2023-06-17T06:59:52.327Z,3.55
2023-06-17T07:00:49.160Z,3.48
2023-06-17T07:01:49.123Z,3.61
2023-06-17T07:02:49.184Z,3.68
2023-06-17T07:03:49.129Z,3.77
2023-06-17T07:04:49.524Z,4.17
2023-06-17T07:05:49.129Z,4.35
2023-06-17T07:06:49.123Z,4.41
2023-06-17T07:07:49.103Z,4.60
2023-06-17T07:08:49.138Z,4.69
2023-06-17T07:09:49.093Z,5.07
2023-06-17T07:10:49.119Z,4.83
2023-06-17T07:11:49.083Z,4.43
2023-06-17T07:12:49.076Z,3.82
2023-06-17T07:13:49.067Z,3.79
2023-06-17T07:14:49.068Z,3.69
2023-06-17T07:15:49.086Z,3.77
2023-06-17T07:16:49.191Z,3.67
2023-06-17T07:17:49.079Z,3.28
2023-06-17T07:18:49.030Z,3.02
2023-06-17T07:19:49.046Z,2.85
2023-06-17T07:20:49.017Z,2.83
2023-06-17T07:21:49.036Z,2.91
2023-06-17T07:22:48.995Z,2.81
2023-06-17T07:23:49.078Z,2.75
2023-06-17T07:24:48.976Z,2.73
2023-06-17T07:25:49.015Z,2.42
2023-06-17T07:26:49.042Z,2.19
2023-06-17T07:27:48.977Z,2.12
2023-06-17T07:28:48.995Z,2.03
2023-06-17T07:29:48.976Z,1.89
2023-06-17T07:30:49.050Z,1.89
2023-06-17T07:31:48.971Z,1.86
2023-06-17T07:32:49.019Z,1.79
2023-06-17T07:33:48.964Z,1.80
2023-06-17T07:34:48.968Z,1.76
2023-06-17T07:35:48.939Z,1.66
2023-06-17T07:36:48.956Z,1.61
2023-06-17T07:37:48.910Z,1.58
2023-06-17T07:38:48.906Z,1.60
2023-06-17T07:39:48.924Z,1.65
2023-06-17T07:40:48.889Z,1.70
2023-06-17T07:41:48.888Z,1.72
2023-06-17T07:42:48.900Z,1.67
2023-06-17T07:43:48.856Z,1.67
2023-06-17T07:44:48.861Z,1.68
2023-06-17T07:45:48.898Z,1.65
2023-06-17T07:46:48.934Z,1.59
2023-06-17T07:47:48.904Z,1.50
2023-06-17T07:48:48.861Z,1.48
2023-06-17T07:49:48.853Z,1.52
2023-06-17T07:50:48.820Z,1.52
2023-06-17T07:51:48.810Z,1.36
2023-06-17T07:52:48.818Z,1.29
2023-06-17T07:53:48.800Z,1.27
2023-06-17T07:54:48.802Z,1.23
2023-06-17T07:55:48.781Z,1.25
2023-06-17T07:56:48.749Z,1.40
2023-06-17T07:57:48.738Z,1.46
2023-06-17T07:58:48.741Z,1.61
2023-06-17T07:59:48.750Z,1.71
2023-06-17T08:00:48.738Z,1.90
2023-06-17T08:01:48.824Z,1.93
2023-06-17T08:02:48.885Z,2.02
2023-06-17T08:03:48.795Z,2.12
2023-06-17T08:04:48.722Z,2.19
2023-06-17T08:05:48.708Z,2.19
2023-06-17T08:06:48.668Z,2.29
2023-06-17T08:07:48.682Z,2.35
2023-06-17T08:08:48.663Z,2.44
2023-06-17T08:09:48.679Z,2.49
2023-06-17T08:10:48.679Z,2.50
2023-06-17T08:11:48.669Z,2.59
2023-06-17T08:12:48.661Z,2.50
2023-06-17T08:13:48.653Z,2.54
2023-06-17T08:14:48.653Z,2.74
2023-06-17T08:15:48.650Z,2.86
2023-06-17T08:16:48.779Z,2.92
2023-06-17T08:17:48.690Z,2.81
2023-06-17T08:18:48.661Z,2.77
2023-06-17T08:19:48.692Z,2.85
2023-06-17T08:20:48.686Z,2.99
2023-06-17T08:21:48.681Z,3.10
2023-06-17T08:22:48.663Z,3.03
2023-06-17T08:23:48.712Z,2.77
2023-06-17T08:24:48.699Z,2.63
2023-06-17T08:25:48.669Z,2.63
2023-06-17T08:26:48.669Z,2.75
2023-06-17T08:27:48.849Z,2.79
2023-06-17T08:28:48.689Z,2.92
2023-06-17T08:29:48.717Z,3.03
2023-06-17T08:30:48.816Z,3.08
2023-06-17T08:31:48.750Z,2.61
2023-06-17T08:32:48.807Z,2.39
2023-06-17T08:33:48.779Z,2.40
2023-06-17T08:34:48.754Z,2.42
2023-06-17T08:35:48.751Z,2.44
2023-06-17T08:36:48.793Z,2.42
2023-06-17T08:37:48.779Z,2.33
2023-06-17T08:38:48.813Z,2.11
2023-06-17T08:39:48.825Z,1.75
2023-06-17T08:40:48.866Z,1.68
2023-06-17T08:41:48.890Z,1.69
2023-06-17T08:42:48.909Z,1.60
2023-06-17T08:43:48.923Z,1.61
2023-06-17T08:44:48.920Z,1.54
2023-06-17T08:45:48.969Z,1.45
2023-06-17T08:46:48.959Z,1.48
2023-06-17T08:47:48.953Z,1.46
2023-06-17T08:48:48.949Z,1.47
2023-06-17T08:49:49.003Z,1.46
2023-06-17T08:50:48.965Z,1.57
2023-06-17T08:51:48.983Z,1.67
2023-06-17T08:52:48.986Z,1.71
2023-06-17T08:53:49.041Z,1.74
2023-06-17T08:54:49.064Z,1.91
2023-06-17T08:55:49.074Z,2.00
2023-06-17T08:56:49.089Z,2.11
2023-06-17T08:57:49.139Z,2.19
2023-06-17T08:58:49.162Z,2.15
2023-06-17T08:59:49.208Z,2.04
2023-06-17T09:00:49.274Z,1.82
2023-06-17T09:01:49.258Z,1.86
2023-06-17T09:02:49.321Z,1.99
2023-06-17T09:03:49.304Z,2.08
2023-06-17T09:04:49.393Z,2.18
2023-06-17T09:05:49.358Z,2.23
2023-06-17T09:06:49.405Z,2.28
2023-06-17T09:07:49.419Z,2.41
2023-06-17T09:08:49.434Z,2.50
2023-06-17T09:09:49.496Z,2.52
2023-06-17T09:10:49.525Z,2.52
2023-06-17T09:11:51.917Z,2.62
2023-06-17T09:12:49.695Z,2.65
2023-06-17T09:13:49.780Z,2.71
2023-06-17T09:14:49.774Z,2.72
2023-06-17T09:15:49.803Z,2.72
2023-06-17T09:16:49.944Z,2.76
2023-06-17T09:17:49.931Z,2.83
2023-06-17T09:18:49.938Z,2.72
2023-06-17T09:19:49.968Z,2.93
2023-06-17T09:20:50.010Z,2.81
2023-06-17T09:21:50.048Z,2.77
2023-06-17T09:22:50.050Z,2.78
2023-06-17T09:23:50.178Z,2.78
2023-06-17T09:24:50.139Z,2.84
2023-06-17T09:25:50.183Z,2.82
2023-06-17T09:26:50.212Z,2.73
2023-06-17T09:28:05.922Z,2.72
2023-06-17T09:28:51.225Z,2.72
2023-06-17T09:29:50.165Z,2.66
2023-06-17T09:30:50.154Z,2.71
2023-06-17T09:31:50.157Z,2.75
2023-06-17T09:32:50.153Z,2.83
2023-06-17T09:33:50.117Z,3.13
2023-06-17T09:34:50.089Z,3.01
2023-06-17T09:35:50.054Z,2.93
2023-06-17T09:36:50.044Z,3.00
2023-06-17T09:38:02.654Z,3.10
2023-06-17T09:38:51.061Z,3.10
2023-06-17T09:39:50.058Z,3.10
2023-06-17T09:40:50.047Z,3.14
2023-06-17T09:41:49.973Z,3.26
2023-06-17T09:42:49.974Z,3.34
2023-06-17T09:43:49.948Z,3.21
2023-06-17T09:44:49.906Z,3.21
2023-06-17T09:45:49.898Z,3.16
2023-06-17T09:46:49.982Z,3.16
2023-06-17T09:47:49.967Z,3.04
2023-06-17T09:48:49.876Z,2.47
2023-06-17T09:49:49.917Z,2.08
2023-06-17T09:50:49.979Z,2.13
2023-06-17T09:51:50.035Z,2.24
2023-06-17T09:52:50.042Z,2.27
2023-06-17T09:53:50.091Z,2.24
2023-06-17T09:54:50.141Z,2.46
2023-06-17T09:55:50.177Z,2.38
2023-06-17T09:56:50.257Z,2.20
2023-06-17T09:57:50.262Z,2.14
2023-06-17T09:58:50.324Z,2.44
2023-06-17T09:59:50.332Z,2.32
2023-06-17T10:00:50.398Z,2.27
2023-06-17T10:01:50.419Z,2.20
2023-06-17T10:02:50.522Z,2.24
2023-06-17T10:03:50.679Z,2.19
2023-06-17T10:04:50.556Z,2.37
2023-06-17T10:05:50.575Z,2.31
2023-06-17T10:06:50.626Z,2.17
2023-06-17T10:07:50.705Z,2.06
2023-06-17T10:08:50.711Z,2.13
2023-06-17T10:09:50.784Z,2.21
2023-06-17T10:10:50.813Z,2.08
2023-06-17T10:11:50.839Z,2.20
2023-06-17T10:12:50.869Z,2.27
2023-06-17T10:13:50.916Z,2.42
2023-06-17T10:14:50.936Z,2.52
2023-06-17T10:15:50.990Z,2.62
2023-06-17T10:16:51.016Z,2.63
2023-06-17T10:17:51.186Z,2.71
2023-06-17T10:18:51.092Z,2.59
2023-06-17T10:19:51.136Z,2.30
2023-06-17T10:20:51.153Z,1.72
2023-06-17T10:21:51.213Z,1.41
2023-06-17T10:22:51.233Z,1.16
2023-06-17T10:23:51.265Z,1.19
2023-06-17T10:24:51.309Z,1.23
2023-06-17T10:25:51.311Z,1.24
2023-06-17T10:26:51.383Z,1.28
2023-06-17T10:27:51.396Z,1.31
2023-06-17T10:28:51.404Z,1.32
2023-06-17T10:29:51.456Z,1.35
2023-06-17T10:30:51.489Z,1.39
2023-06-17T10:31:51.532Z,1.37
2023-06-17T10:32:52.472Z,1.39
2023-06-17T10:33:51.604Z,1.43
2023-06-17T10:34:51.645Z,1.53
2023-06-17T10:35:51.711Z,1.48
2023-06-17T10:36:51.770Z,1.40
2023-06-17T10:37:51.793Z,1.46
2023-06-17T10:38:51.810Z,1.50
2023-06-17T10:39:51.878Z,1.45
2023-06-17T10:40:51.916Z,1.36
2023-06-17T10:41:51.942Z,1.40
2023-06-17T10:42:51.982Z,1.36
2023-06-17T10:43:52.022Z,1.33
2023-06-17T10:44:52.063Z,1.35
2023-06-17T10:45:52.147Z,1.38
2023-06-17T10:46:52.182Z,1.34
2023-06-17T10:47:52.201Z,1.47
2023-06-17T10:48:52.225Z,1.42
2023-06-17T10:49:52.272Z,1.37
2023-06-17T10:50:52.302Z,1.30
2023-06-17T10:52:52.338Z,1.40
2023-06-17T10:53:52.303Z,1.40
2023-06-17T10:54:52.301Z,1.42
2023-06-17T10:55:52.276Z,1.37
2023-06-17T10:56:52.254Z,1.45
2023-06-17T10:57:52.220Z,1.48
2023-06-17T10:58:52.194Z,1.50
2023-06-17T10:59:52.207Z,1.49
2023-06-17T11:00:52.160Z,1.49
2023-06-17T11:01:52.142Z,1.36
2023-06-17T11:02:52.224Z,1.36
2023-06-17T11:03:52.187Z,1.39
2023-06-17T11:04:52.184Z,1.21
2023-06-17T11:05:52.213Z,1.06
2023-06-17T11:06:52.249Z,0.82
2023-06-17T11:07:52.272Z,0.66
2023-06-17T11:08:52.311Z,0.69
2023-06-17T11:09:52.421Z,0.66
2023-06-17T11:10:52.373Z,0.67
2023-06-17T11:11:52.427Z,0.73
2023-06-17T11:12:52.484Z,0.72
2023-06-17T11:13:52.481Z,0.67
2023-06-17T11:14:52.531Z,0.54
2023-06-17T11:15:52.542Z,0.50
2023-06-17T11:16:52.666Z,0.51
2023-06-17T11:17:52.714Z,0.53
2023-06-17T11:18:52.667Z,0.58
2023-06-17T11:19:52.703Z,0.57
2023-06-17T11:20:52.766Z,0.60
2023-06-17T11:21:52.780Z,0.63
2023-06-17T11:22:52.783Z,0.67
2023-06-17T11:23:52.846Z,0.74
2023-06-17T11:24:52.896Z,0.79
2023-06-17T11:25:53.561Z,0.85
2023-06-17T11:26:52.957Z,0.93
2023-06-17T11:27:52.980Z,0.95
2023-06-17T11:28:53.001Z,0.96
2023-06-17T11:29:53.060Z,1.02
2023-06-17T11:30:53.129Z,1.07
2023-06-17T11:31:53.116Z,1.06
2023-06-17T11:32:53.200Z,1.05
2023-06-17T11:33:53.232Z,1.06
2023-06-17T11:34:53.232Z,1.15
2023-06-17T11:35:53.266Z,1.13
2023-06-17T11:36:53.276Z,1.09
2023-06-17T11:37:53.306Z,1.03
2023-06-17T11:38:53.416Z,1.11
2023-06-17T11:39:53.382Z,1.07
2023-06-17T11:40:53.411Z,1.07
2023-06-17T11:41:53.485Z,1.05
2023-06-17T11:42:53.475Z,0.99
2023-06-17T11:43:53.530Z,0.94
2023-06-17T11:44:53.549Z,0.98
2023-06-17T11:45:53.625Z,1.03
2023-06-17T11:46:53.650Z,0.98
2023-06-17T11:47:53.699Z,0.99
2023-06-17T11:48:53.667Z,1.07
2023-06-17T11:49:53.710Z,1.12
2023-06-17T11:50:53.722Z,1.13
2023-06-17T11:51:53.741Z,1.13
2023-06-17T11:52:53.786Z,1.21
2023-06-17T11:53:53.792Z,1.26
2023-06-17T11:54:53.826Z,1.02
2023-06-17T11:55:53.888Z,0.80
2023-06-17T11:56:53.893Z,0.88
2023-06-17T11:57:53.936Z,0.98
2023-06-17T11:58:53.969Z,1.06
2023-06-17T11:59:54.013Z,1.10
2023-06-17T12:00:54.024Z,1.13
2023-06-17T12:01:54.079Z,1.11
2023-06-17T12:02:54.214Z,0.98
2023-06-17T12:03:54.122Z,0.95
2023-06-17T12:04:54.118Z,0.94
2023-06-17T12:05:54.172Z,0.97
2023-06-17T12:06:54.182Z,0.92
2023-06-17T12:07:54.200Z,0.84
2023-06-17T12:08:54.249Z,0.86
2023-06-17T12:09:54.378Z,0.85
2023-06-17T12:10:54.304Z,0.82
2023-06-17T12:11:54.335Z,0.80
2023-06-17T12:12:54.363Z,0.80
2023-06-17T12:13:54.393Z,0.73
2023-06-17T12:14:54.385Z,0.73
2023-06-17T12:15:54.463Z,0.84
2023-06-17T12:16:54.501Z,0.84
2023-06-17T12:17:54.531Z,0.78
2023-06-17T12:18:54.567Z,0.75
2023-06-17T12:19:54.632Z,0.72
2023-06-17T12:20:54.597Z,0.76
2023-06-17T12:21:54.594Z,0.69
2023-06-17T12:22:54.633Z,0.59
2023-06-17T12:23:54.809Z,0.57
2023-06-17T12:24:54.669Z,0.55
2023-06-17T12:25:54.713Z,0.51
2023-06-17T12:26:54.741Z,0.52
2023-06-17T12:27:54.752Z,0.52
2023-06-17T12:28:54.770Z,0.53
2023-06-17T12:29:54.792Z,0.50
2023-06-17T12:30:54.846Z,0.53
2023-06-17T12:31:54.840Z,0.50
2023-06-17T12:32:54.914Z,0.50
2023-06-17T12:33:54.854Z,0.51
2023-06-17T12:34:54.883Z,0.52
2023-06-17T12:35:54.929Z,0.58
2023-06-17T12:36:54.945Z,0.63
2023-06-17T12:37:55.001Z,0.63
2023-06-17T12:38:54.990Z,0.61
2023-06-17T12:39:55.033Z,0.59
2023-06-17T12:40:55.041Z,0.52
2023-06-17T12:41:55.084Z,0.52
2023-06-17T12:42:55.082Z,0.53
2023-06-17T12:43:55.089Z,0.56
2023-06-17T12:44:55.118Z,0.64
2023-06-17T12:45:55.151Z,0.68
2023-06-17T12:46:55.163Z,0.64
2023-06-17T12:47:55.239Z,0.59
2023-06-17T12:48:55.197Z,0.57
2023-06-17T12:49:55.230Z,0.55
2023-06-17T12:50:55.265Z,0.53
2023-06-17T12:51:55.259Z,0.55
2023-06-17T12:52:55.303Z,0.58
2023-06-17T12:53:55.303Z,0.60
2023-06-17T12:54:55.331Z,0.64
2023-06-17T12:55:55.306Z,0.70
2023-06-17T12:56:55.304Z,0.65
2023-06-17T12:57:55.348Z,0.63
2023-06-17T12:58:55.334Z,0.57
2023-06-17T12:59:55.321Z,0.53
2023-06-17T13:00:55.398Z,0.52
2023-06-17T13:01:55.422Z,0.53
2023-06-17T13:02:55.502Z,0.55
2023-06-17T13:03:55.475Z,0.56
2023-06-17T13:04:55.416Z,0.50
2023-06-17T13:05:55.449Z,0.50
2023-06-17T13:06:55.461Z,0.52
2023-06-17T13:07:55.506Z,0.52
2023-06-17T13:08:55.525Z,0.55